Time;durP1;ratioP1;P1;durP2;ratioP2;P2;SDS_P1;SDS_P2;PMS_P1;PMS_P2;Temp;Humidity;BMP_temperature;BMP_pressure;BME280_temperature;BME280_humidity;BME280_pressure;Samples;Min_cycle;Max_cycle;Signal;HPM_P1;HPM_P2
2023/05/15 00:01:34;;;;;;;19.30;17.27;;;;;;;16.96;74.77;101434.69;5255400;28;20078;-73
2023/05/15 00:04:05;;;;;;;23.23;18.63;;;;;;;16.68;75.94;101437.66;5245315;28;20033;-73
2023/05/15 00:06:36;;;;;;;21.43;18.43;;;;;;;16.72;76.19;101437.44;5237564;28;20556;-73
2023/05/15 00:09:08;;;;;;;20.60;18.10;;;;;;;16.53;76.72;101429.09;5257057;28;20032;-73
2023/05/15 00:11:39;;;;;;;25.07;20.43;;;;;;;16.60;76.35;101428.63;5254260;28;20075;-73
2023/05/15 00:14:10;;;;;;;24.07;18.20;;;;;;;16.76;74.70;101423.00;5255243;28;20098;-73
2023/05/15 00:16:42;;;;;;;23.40;19.13;;;;;;;16.65;75.45;101416.72;5255364;28;20033;-73
2023/05/15 00:19:13;;;;;;;21.80;18.87;;;;;;;16.52;76.03;101422.13;5254081;28;20017;-73
2023/05/15 00:21:44;;;;;;;25.37;20.03;;;;;;;16.63;75.76;101423.09;5255239;28;20027;-73
2023/05/15 00:24:16;;;;;;;22.90;20.53;;;;;;;16.25;78.59;101430.34;5237710;28;20124;-73
2023/05/15 00:26:47;;;;;;;24.10;21.47;;;;;;;16.41;77.09;101415.00;5254889;28;20114;-73
2023/05/15 00:29:18;;;;;;;22.50;18.97;;;;;;;16.39;77.09;101424.03;5255193;28;20059;-73
2023/05/15 00:31:50;;;;;;;26.73;18.30;;;;;;;16.47;76.43;101416.34;5237231;28;20063;-73
2023/05/15 00:34:21;;;;;;;25.97;21.47;;;;;;;16.39;76.72;101406.34;5254540;28;20505;-73
2023/05/15 00:36:53;;;;;;;22.93;19.43;;;;;;;16.43;76.68;101413.09;5236255;28;20116;-73
2023/05/15 00:39:24;;;;;;;21.00;18.80;;;;;;;16.41;76.58;101407.06;5239240;28;20112;-73
2023/05/15 00:41:56;;;;;;;24.80;20.50;;;;;;;16.23;76.67;101403.19;5236350;28;20587;-73
2023/05/15 00:44:28;;;;;;;23.43;20.67;;;;;;;16.14;78.07;101413.50;5255131;28;20037;-73
2023/05/15 00:47:02;;;;;;;29.53;22.87;;;;;;;15.98;79.20;101408.47;5253568;28;20025;-73
2023/05/15 00:49:34;;;;;;;22.60;20.00;;;;;;;16.17;77.47;101402.69;5251451;28;20028;-73
2023/05/15 00:52:07;;;;;;;29.20;20.27;;;;;;;16.05;78.41;101408.88;5264946;28;20374;-73
2023/05/15 00:54:38;;;;;;;23.20;20.23;;;;;;;16.00;78.26;101413.69;5236567;28;20025;-73
2023/05/15 00:57:10;;;;;;;23.23;20.83;;;;;;;15.97;78.25;101407.63;5254282;28;20021;-73
2023/05/15 00:59:43;;;;;;;24.47;21.87;;;;;;;15.92;78.85;101409.75;5254620;28;20054;-73
2023/05/15 01:02:17;;;;;;;23.80;21.30;;;;;;;15.92;78.69;101401.00;5253330;28;20032;-73
2023/05/15 01:04:48;;;;;;;25.67;22.58;;;;;;;15.86;78.27;101404.94;5254098;28;20036;-73
2023/05/15 01:07:20;;;;;;;24.33;21.77;;;;;;;15.75;79.33;101397.81;5236014;28;20028;-73
2023/05/15 01:09:52;;;;;;;26.53;23.83;;;;;;;15.75;79.36;101399.59;5254185;28;20033;-73
2023/05/15 01:12:25;;;;;;;29.03;22.17;;;;;;;15.57;80.22;101385.00;5236759;28;20025;-73
2023/05/15 01:14:57;;;;;;;25.23;22.30;;;;;;;15.57;80.00;101382.34;5254324;28;20465;-73
2023/05/15 01:17:28;;;;;;;25.83;22.73;;;;;;;15.56;79.63;101378.03;5252773;28;20021;-73
2023/05/15 01:20:05;;;;;;;28.07;23.30;;;;;;;15.67;79.94;101386.97;5235918;28;20455;-73
2023/05/15 01:22:39;;;;;;;25.87;23.17;;;;;;;15.64;79.66;101395.94;5254060;28;20032;-73
2023/05/15 01:25:36;;;;;;;27.58;24.02;;;;;;;15.60;80.70;101399.78;5254199;28;20113;-73
2023/05/15 01:28:10;;;;;;;26.37;23.60;;;;;;;15.41;81.49;101390.53;5253998;28;20132;-73
2023/05/15 01:30:43;;;;;;;29.10;21.50;;;;;;;15.52;80.23;101383.63;5254022;28;20061;-73
2023/05/15 01:33:22;;;;;;;25.37;22.73;;;;;;;15.62;80.34;101391.75;5234608;28;20051;-73
2023/05/15 01:36:15;;;;;;;27.60;24.60;;;;;;;15.81;78.38;101385.97;5236294;28;20074;-73
2023/05/15 01:38:50;;;;;;;27.37;24.43;;;;;;;15.56;79.97;101385.97;5252351;28;20032;-73
2023/05/15 01:41:25;;;;;;;25.57;22.87;;;;;;;15.18;82.72;101379.84;5235316;28;20021;-73
2023/05/15 01:44:05;;;;;;;26.50;23.70;;;;;;;15.48;81.19;101377.75;5235460;28;20060;-73
2023/05/15 01:46:44;;;;;;;30.00;24.93;;;;;;;15.56;80.23;101379.81;5235204;28;20060;-73
2023/05/15 01:49:18;;;;;;;28.93;23.70;;;;;;;15.13;83.37;101381.97;5252106;28;20021;-73
2023/05/15 01:51:55;;;;;;;26.75;23.80;;;;;;;15.33;81.66;101377.03;5253657;28;20029;-73
2023/05/15 01:54:28;;;;;;;27.70;23.67;;;;;;;14.84;84.76;101355.84;5235844;28;20067;-73
2023/05/15 01:57:00;;;;;;;29.60;26.33;;;;;;;15.06;83.27;101368.34;5252584;28;20559;-73
2023/05/15 01:59:33;;;;;;;26.83;23.97;;;;;;;15.20;81.87;101362.09;5242757;28;20057;-73
2023/05/15 02:02:06;;;;;;;29.93;24.77;;;;;;;15.15;81.92;101364.22;5250851;28;20720;-75
2023/05/15 02:04:38;;;;;;;27.90;24.87;;;;;;;15.17;82.17;101366.78;5251452;28;20432;-72
2023/05/15 02:07:09;;;;;;;27.30;24.33;;;;;;;14.98;83.30;101373.31;5253173;28;20576;-72
2023/05/15 02:09:42;;;;;;;27.27;23.97;;;;;;;15.02;83.06;101360.75;5235030;28;20021;-72
2023/05/15 02:12:14;;;;;;;27.10;24.20;;;;;;;14.90;84.38;101363.34;5235878;28;20532;-72
2023/05/15 02:14:48;;;;;;;31.17;25.47;;;;;;;14.97;84.26;101363.75;5253029;28;20025;-72
2023/05/15 02:17:22;;;;;;;28.15;25.35;;;;;;;14.94;84.18;101356.88;5248319;28;20030;-72
2023/05/15 02:19:54;;;;;;;29.10;25.67;;;;;;;14.98;83.72;101365.41;5240669;28;20794;-72
2023/05/15 02:22:25;;;;;;;29.27;26.17;;;;;;;14.94;83.69;101361.31;5235441;28;20060;-72
2023/05/15 02:24:57;;;;;;;28.57;25.57;;;;;;;14.86;84.62;101361.84;5252889;28;20048;-71
2023/05/15 02:27:43;;;;;;;30.67;25.77;;;;;;;14.91;85.44;101365.00;5253316;28;20104;-72
2023/05/15 02:30:47;;;;;;;29.63;26.50;;;;;;;15.08;83.72;101363.00;5242806;28;20123;-72
2023/05/15 02:33:22;;;;;;;32.42;26.98;;;;;;;14.64;87.33;101369.41;5234382;28;20497;-72
2023/05/15 02:36:03;;;;;;;35.88;28.17;;;;;;;14.83;85.25;101362.06;5252729;28;20128;-72
2023/05/15 02:38:45;;;;;;;33.50;27.60;;;;;;;14.70;87.71;101376.06;5252866;28;20037;-72
2023/05/15 02:41:18;;;;;;;32.80;28.07;;;;;;;14.68;86.83;101382.41;5234912;28;20032;-72
2023/05/15 02:43:51;;;;;;;31.97;28.57;;;;;;;14.38;89.64;101376.50;5253165;28;20029;-72
2023/05/15 02:46:23;;;;;;;32.50;27.17;;;;;;;14.61;86.99;101379.31;5234901;28;20033;-74
2023/05/15 02:48:55;;;;;;;37.27;28.73;;;;;;;14.57;87.22;101376.09;5251757;28;20033;-74
2023/05/15 02:51:26;;;;;;;36.20;29.33;;;;;;;14.59;87.34;101375.97;5253384;28;20088;-72
2023/05/15 02:53:59;;;;;;;33.70;29.83;;;;;;;14.40;88.13;101367.53;5252818;28;20056;-72
2023/05/15 02:56:31;;;;;;;36.13;30.60;;;;;;;14.46;88.48;101368.91;5253016;28;20108;-72
2023/05/15 02:59:02;;;;;;;36.87;29.83;;;;;;;14.43;88.86;101376.16;5252773;28;20040;-72
2023/05/15 03:01:34;;;;;;;33.50;30.00;;;;;;;14.52;87.16;101368.47;5252793;28;20017;-72
2023/05/15 03:04:05;;;;;;;33.70;30.17;;;;;;;14.47;87.63;101360.03;5251723;28;20485;-72
2023/05/15 03:06:36;;;;;;;37.03;31.83;;;;;;;14.30;88.75;101365.59;5234834;28;20136;-72
2023/05/15 03:09:08;;;;;;;37.67;31.40;;;;;;;14.28;89.34;101363.06;5252958;28;20029;-71
2023/05/15 03:11:39;;;;;;;35.53;31.77;;;;;;;14.45;88.78;101359.28;5252612;28;20085;-71
2023/05/15 03:14:10;;;;;;;37.23;31.67;;;;;;;14.25;89.25;101365.94;5252607;28;20029;-72
2023/05/15 03:16:41;;;;;;;36.63;31.23;;;;;;;14.43;88.07;101358.56;5251763;28;20025;-72
2023/05/15 03:19:13;;;;;;;35.00;31.20;;;;;;;14.44;87.98;101362.88;5252583;28;20040;-72
2023/05/15 03:21:44;;;;;;;36.83;32.30;;;;;;;14.27;89.38;101358.75;5252869;28;20033;-72
2023/05/15 03:24:15;;;;;;;37.70;33.70;;;;;;;14.20;90.24;101360.97;5234952;28;20031;-72
2023/05/15 03:26:47;;;;;;;37.23;33.23;;;;;;;14.15;90.00;101363.06;5252552;28;20033;-72
2023/05/15 03:29:18;;;;;;;38.27;33.97;;;;;;;14.01;90.24;101358.72;5234354;28;20052;-72
2023/05/15 03:31:49;;;;;;;37.90;33.27;;;;;;;14.12;90.21;101360.66;5254210;28;20037;-73
2023/05/15 03:34:21;;;;;;;37.93;33.77;;;;;;;14.21;88.96;101354.75;5256301;28;20477;-73
2023/05/15 03:36:52;;;;;;;37.93;33.37;;;;;;;14.14;89.96;101354.31;5255734;28;20526;-73
2023/05/15 03:39:23;;;;;;;40.83;33.27;;;;;;;13.71;93.97;101350.09;5256603;28;20738;-73
2023/05/15 03:41:54;;;;;;;38.30;33.13;;;;;;;14.12;90.37;101350.94;5255799;28;20481;-73
2023/05/15 03:44:26;;;;;;;38.03;33.90;;;;;;;14.03;91.02;101341.03;5238290;28;20409;-73
2023/05/15 03:46:57;;;;;;;41.53;35.23;;;;;;;13.99;91.14;101350.06;5254653;28;20499;-73
2023/05/15 03:49:28;;;;;;;40.93;34.77;;;;;;;14.06;90.77;101356.63;5255630;28;20025;-73
2023/05/15 03:52:00;;;;;;;39.83;35.50;;;;;;;13.89;91.29;101336.69;5237652;28;20182;-73
2023/05/15 03:54:31;;;;;;;40.30;35.10;;;;;;;14.08;90.26;101349.47;5255830;28;20040;-73
2023/05/15 03:57:06;;;;;;;40.10;35.30;;;;;;;14.10;89.83;101347.56;5252488;28;20104;-73
2023/05/15 03:59:37;;;;;;;41.10;34.80;;;;;;;14.04;90.35;101347.97;5237679;28;20120;-73
2023/05/15 04:02:09;;;;;;;39.80;35.20;;;;;;;14.01;89.90;101349.03;5254179;28;20119;-72
2023/05/15 04:04:40;;;;;;;43.73;37.60;;;;;;;13.93;90.69;101351.31;5255441;28;20036;-73
2023/05/15 04:07:11;;;;;;;40.43;36.03;;;;;;;13.89;91.21;101345.41;5237043;28;20032;-73
2023/05/15 04:09:43;;;;;;;43.90;37.23;;;;;;;13.87;91.34;101342.06;5237656;28;20051;-74
2023/05/15 04:12:14;;;;;;;40.93;35.13;;;;;;;13.89;91.14;101339.31;5255287;28;20033;-74
2023/05/15 04:14:45;;;;;;;43.63;36.80;;;;;;;13.89;91.36;101339.31;5237237;28;20033;-73
2023/05/15 04:17:16;;;;;;;43.37;37.07;;;;;;;13.74;92.45;101336.75;5254671;28;20063;-73
2023/05/15 04:19:48;;;;;;;44.23;37.50;;;;;;;13.87;91.69;101344.69;5254880;28;20045;-73
2023/05/15 04:22:19;;;;;;;48.53;39.90;;;;;;;13.72;93.14;101345.69;5237653;28;20051;-73
2023/05/15 04:24:50;;;;;;;46.90;39.10;;;;;;;13.52;94.99;101340.78;5255446;28;20032;-74
2023/05/15 04:27:22;;;;;;;45.13;37.83;;;;;;;13.69;94.29;101343.25;5255576;28;20029;-74
2023/05/15 04:29:53;;;;;;;49.40;40.10;;;;;;;13.76;92.78;101342.75;5237759;28;20091;-73
2023/05/15 04:32:24;;;;;;;44.70;39.57;;;;;;;13.74;93.65;101343.78;5254809;28;20032;-73
2023/05/15 04:34:55;;;;;;;44.13;37.80;;;;;;;13.50;96.38;101362.84;5237410;28;20025;-73
2023/05/15 04:37:27;;;;;;;44.30;38.27;;;;;;;13.68;94.94;101363.47;5255132;28;20836;-73
2023/05/15 04:39:58;;;;;;;48.37;38.23;;;;;;;13.68;95.55;101358.22;5254797;28;20041;-73
2023/05/15 04:42:30;;;;;;;44.60;39.83;;;;;;;13.72;94.87;101362.31;5254012;28;20088;-78
2023/05/15 04:45:02;;;;;;;48.43;39.40;;;;;;;13.81;94.88;101367.94;5251971;28;20037;-76
2023/05/15 04:47:34;;;;;;;46.50;39.93;;;;;;;13.84;95.85;101379.09;5234243;28;20112;-73
2023/05/15 04:50:06;;;;;;;52.47;41.30;;;;;;;13.81;96.34;101374.03;5238361;28;20033;-78
2023/05/15 04:52:37;;;;;;;49.37;41.83;;;;;;;13.79;97.03;101373.28;5238825;28;20489;-76
2023/05/15 04:55:08;;;;;;;50.57;43.83;;;;;;;13.69;99.20;101373.06;5237853;28;20021;-75
2023/05/15 04:57:40;;;;;;;46.43;41.17;;;;;;;13.77;98.47;101383.09;5255976;28;20056;-75
2023/05/15 05:00:13;;;;;;;54.93;44.23;;;;;;;13.72;98.73;101372.03;5254572;28;20039;-75
2023/05/15 05:02:44;;;;;;;51.73;43.63;;;;;;;13.64;100.00;101375.13;5255432;28;20124;-72
2023/05/15 05:05:15;;;;;;;56.23;44.73;;;;;;;13.65;100.00;101368.91;5255753;28;20112;-76
2023/05/15 05:07:47;;;;;;;57.33;45.07;;;;;;;13.66;100.00;101370.63;5258028;28;21098;-83
2023/05/15 05:10:18;;;;;;;50.60;43.20;;;;;;;13.75;100.00;101375.28;5253196;28;20206;-75
2023/05/15 05:12:49;;;;;;;55.17;43.83;;;;;;;13.73;100.00;101381.59;5254559;28;20056;-76
2023/05/15 05:15:21;;;;;;;53.80;43.97;;;;;;;13.41;100.00;101372.16;5236806;28;20037;-76
2023/05/15 05:17:52;;;;;;;49.60;39.70;;;;;;;13.60;100.00;101392.06;5238959;28;20024;-74
2023/05/15 05:20:23;;;;;;;43.77;38.50;;;;;;;13.63;100.00;101391.88;5236384;28;20115;-73
2023/05/15 05:22:55;;;;;;;47.23;39.20;;;;;;;13.54;100.00;101357.28;5259804;28;20184;-78
2023/05/15 05:25:26;;;;;;;46.63;38.97;;;;;;;13.74;100.00;101389.38;5234449;28;20039;-71
2023/05/15 05:27:57;;;;;;;46.40;37.67;;;;;;;13.87;100.00;101399.13;5256847;28;20457;-71
2023/05/15 05:30:29;;;;;;;48.10;39.67;;;;;;;13.88;100.00;101385.00;5252721;28;20135;-73
2023/05/15 05:33:00;;;;;;;46.47;38.53;;;;;;;13.95;100.00;101390.72;5254972;28;20040;-70
2023/05/15 05:35:31;;;;;;;47.33;37.57;;;;;;;13.89;100.00;101402.50;5255206;28;20040;-72
2023/05/15 05:38:02;;;;;;;50.17;39.63;;;;;;;13.86;100.00;101416.72;5237233;28;20739;-69
2023/05/15 05:40:34;;;;;;;46.47;36.47;;;;;;;14.01;98.98;101400.84;5254563;28;20505;-76
2023/05/15 05:43:05;;;;;;;44.43;35.40;;;;;;;13.89;98.45;101407.78;5235134;28;20397;-70
2023/05/15 05:45:36;;;;;;;40.87;35.47;;;;;;;13.98;97.30;101415.06;5237447;28;20079;-70
2023/05/15 05:48:08;;;;;;;46.40;37.00;;;;;;;14.03;98.33;101425.31;5254107;28;20032;-70
2023/05/15 05:50:39;;;;;;;39.23;33.47;;;;;;;14.00;97.50;101421.06;5233675;28;20037;-67
2023/05/15 05:53:10;;;;;;;45.77;34.60;;;;;;;13.79;99.55;101413.63;5251768;28;20045;-67
2023/05/15 05:55:42;;;;;;;41.47;34.00;;;;;;;14.03;97.74;101405.06;5236158;28;20098;-67
2023/05/15 05:58:14;;;;;;;42.10;34.40;;;;;;;13.94;98.28;101413.59;5255072;28;20029;-67
2023/05/15 06:00:46;;;;;;;42.37;34.43;;;;;;;14.00;98.71;101407.91;5247431;28;20696;-68
2023/05/15 06:03:18;;;;;;;44.70;35.60;;;;;;;14.18;97.66;101407.66;5251308;28;20078;-67
2023/05/15 06:05:49;;;;;;;39.03;34.73;;;;;;;14.15;99.30;101411.31;5249294;28;20036;-69
2023/05/15 06:08:21;;;;;;;41.10;32.50;;;;;;;14.21;96.47;101411.84;5248338;28;20025;-67
2023/05/15 06:10:52;;;;;;;38.00;31.87;;;;;;;14.23;96.85;101399.44;5253467;28;20155;-68
2023/05/15 06:13:23;;;;;;;35.20;31.30;;;;;;;14.25;94.40;101405.44;5230209;28;20036;-68
2023/05/15 06:15:54;;;;;;;34.43;30.70;;;;;;;14.39;93.40;101408.00;5251631;28;20126;-67
2023/05/15 06:18:26;;;;;;;35.63;30.67;;;;;;;14.45;93.12;101411.19;5250339;28;20029;-67
2023/05/15 06:20:59;;;;;;;35.43;29.03;;;;;;;14.35;92.98;101410.94;5251653;28;20059;-67
2023/05/15 06:23:30;;;;;;;33.90;30.30;;;;;;;14.45;93.11;101409.38;5251980;28;20123;-68
2023/05/15 06:26:03;;;;;;;33.83;29.67;;;;;;;14.62;92.60;101415.31;5253307;28;20588;-67
2023/05/15 06:28:34;;;;;;;37.50;30.47;;;;;;;14.54;91.66;101417.63;5252469;28;20021;-68
2023/05/15 06:31:05;;;;;;;33.90;29.10;;;;;;;14.61;91.79;101410.97;5250574;28;20501;-68
2023/05/15 06:33:37;;;;;;;32.33;28.87;;;;;;;14.82;90.36;101415.78;5252572;28;20811;-68
2023/05/15 06:36:08;;;;;;;36.20;29.57;;;;;;;14.69;88.09;101410.44;5251228;28;20457;-67
2023/05/15 06:38:39;;;;;;;32.90;28.87;;;;;;;14.83;87.71;101414.81;5252231;28;20494;-67
2023/05/15 06:41:10;;;;;;;34.77;29.30;;;;;;;14.70;87.65;101398.94;5251967;28;20431;-68
2023/05/15 06:43:42;;;;;;;32.10;27.33;;;;;;;14.78;86.84;101403.69;5252458;28;20064;-68
2023/05/15 06:46:15;;;;;;;28.30;25.40;;;;;;;14.80;85.23;101404.44;5250690;28;20029;-68
2023/05/15 06:48:46;;;;;;;29.13;26.07;;;;;;;14.78;85.46;101398.44;5249871;28;20489;-68
2023/05/15 06:51:18;;;;;;;30.03;26.93;;;;;;;14.78;84.85;101408.97;5233107;28;20023;-67
2023/05/15 06:53:49;;;;;;;28.47;25.50;;;;;;;14.85;84.10;101405.00;5233076;28;20032;-68
2023/05/15 06:56:20;;;;;;;27.27;24.37;;;;;;;15.02;84.53;101411.72;5250165;28;20021;-68
2023/05/15 06:58:52;;;;;;;29.57;26.27;;;;;;;15.36;82.96;101405.84;5251101;28;20111;-68
2023/05/15 07:01:23;;;;;;;29.87;26.67;;;;;;;15.48;81.17;101409.44;5251797;28;20572;-67
2023/05/15 07:03:54;;;;;;;32.40;27.87;;;;;;;15.80;81.31;101408.03;5252861;28;20428;-67
2023/05/15 07:06:25;;;;;;;32.00;25.57;;;;;;;15.85;79.17;101408.53;5244613;28;20028;-68
2023/05/15 07:08:58;;;;;;;30.10;26.47;;;;;;;15.96;77.88;101405.94;5231896;28;20029;-67
2023/05/15 07:11:29;;;;;;;29.67;26.03;;;;;;;16.30;75.16;101401.78;5251833;28;20393;-68
2023/05/15 07:14:01;;;;;;;30.70;27.13;;;;;;;16.67;73.32;101403.38;5260300;28;20029;-67
2023/05/15 07:16:32;;;;;;;29.27;25.30;;;;;;;17.05;71.45;101396.09;5256051;28;20036;-68
2023/05/15 07:19:03;;;;;;;30.27;27.00;;;;;;;17.00;68.90;101382.38;5254860;28;20611;-68
2023/05/15 07:21:35;;;;;;;33.30;27.90;;;;;;;17.21;67.65;101405.47;5254364;28;20049;-68
2023/05/15 07:24:07;;;;;;;28.77;25.70;;;;;;;17.49;67.12;101403.28;5255200;28;20021;-68
2023/05/15 07:26:38;;;;;;;29.50;25.67;;;;;;;17.92;66.08;101408.66;5253032;28;20161;-67
2023/05/15 07:29:09;;;;;;;30.20;27.00;;;;;;;17.96;63.57;101399.50;5254711;28;20029;-68
2023/05/15 07:31:43;;;;;;;30.83;24.83;;;;;;;18.66;61.03;101390.22;5253395;28;20029;-68
2023/05/15 07:34:14;;;;;;;27.05;24.15;;;;;;;19.53;57.76;101392.47;5254369;28;20079;-68
2023/05/15 07:36:45;;;;;;;30.10;26.97;;;;;;;20.11;55.90;101395.28;5235557;28;20440;-68
2023/05/15 07:39:17;;;;;;;31.87;28.47;;;;;;;20.58;53.04;101391.81;5235589;28;20414;-68
2023/05/15 07:41:48;;;;;;;32.27;28.97;;;;;;;20.76;52.76;101375.06;5255037;28;20106;-68
2023/05/15 07:44:19;;;;;;;33.77;29.67;;;;;;;21.08;51.75;101375.66;5255398;28;20082;-68
2023/05/15 07:46:51;;;;;;;31.33;28.43;;;;;;;22.06;48.73;101389.28;5253983;28;20024;-68
2023/05/15 07:49:22;;;;;;;32.65;29.45;;;;;;;22.12;46.22;101385.97;5254194;28;20071;-68
2023/05/15 07:51:53;;;;;;;34.92;31.45;;;;;;;22.03;44.87;101389.59;5236721;28;20037;-68
2023/05/15 07:54:25;;;;;;;32.15;29.13;;;;;;;22.38;45.18;101387.00;5236626;28;20028;-68
2023/05/15 07:56:57;;;;;;;31.75;28.75;;;;;;;22.54;45.23;101380.91;5254533;28;20500;-68
2023/05/15 07:59:29;;;;;;;32.53;29.17;;;;;;;22.88;43.93;101371.25;5235704;28;20044;-69
2023/05/15 08:02:01;;;;;;;32.17;29.08;;;;;;;23.07;42.61;101381.63;5265069;28;20017;-69
2023/05/15 08:04:32;;;;;;;31.45;28.27;;;;;;;23.45;41.19;101380.44;5255921;28;20037;-73
2023/05/15 08:07:05;;;;;;;31.65;28.65;;;;;;;23.88;40.87;101387.47;5255628;28;20024;-73
2023/05/15 08:09:37;;;;;;;33.10;29.83;;;;;;;24.31;39.70;101384.63;5256066;28;20116;-72
2023/05/15 08:12:16;;;;;;;32.38;29.00;;;;;;;24.69;41.25;101388.53;5238233;28;20124;-71
2023/05/15 08:14:53;;;;;;;32.33;29.10;;;;;;;24.53;40.02;101385.75;5255660;28;20116;-72
2023/05/15 08:17:24;;;;;;;32.53;29.58;;;;;;;24.60;38.48;101385.03;5254121;28;20367;-70
2023/05/15 08:19:56;;;;;;;35.15;31.88;;;;;;;24.86;38.33;101379.41;5237350;28;20031;-69
2023/05/15 08:22:29;;;;;;;33.92;30.67;;;;;;;25.71;37.87;101380.63;5238016;28;20055;-69
2023/05/15 08:25:02;;;;;;;36.58;33.20;;;;;;;26.01;37.38;101382.56;5254486;28;20036;-71
2023/05/15 08:27:34;;;;;;;34.25;30.92;;;;;;;26.21;36.05;101383.69;5255111;28;20078;-71
2023/05/15 08:30:06;;;;;;;31.70;28.77;;;;;;;26.50;35.48;101388.44;5255406;28;20473;-71
2023/05/15 08:32:37;;;;;;;33.30;30.27;;;;;;;26.34;35.97;101385.75;5254276;28;20033;-71
2023/05/15 08:35:08;;;;;;;31.08;27.88;;;;;;;26.70;34.66;101384.19;5237228;28;20086;-71
2023/05/15 08:37:39;;;;;;;31.65;28.50;;;;;;;26.19;34.13;101382.19;5255421;28;20037;-72
2023/05/15 08:40:11;;;;;;;31.05;28.33;;;;;;;26.29;34.40;101390.81;5237244;28;20064;-72
2023/05/15 08:42:47;;;;;;;33.50;30.58;;;;;;;26.27;35.38;101387.47;5254911;28;20025;-71
2023/05/15 08:45:19;;;;;;;34.03;30.73;;;;;;;25.87;36.01;101384.19;5254610;28;20047;-72
2023/05/15 08:47:51;;;;;;;31.73;28.83;;;;;;;25.56;35.92;101381.38;5253640;28;20392;-71
2023/05/15 08:50:22;;;;;;;33.38;30.08;;;;;;;25.47;36.87;101382.44;5254931;28;20029;-71
2023/05/15 08:52:57;;;;;;;34.30;30.92;;;;;;;25.59;37.18;101386.38;5237067;28;20461;-71
2023/05/15 08:55:28;;;;;;;33.17;30.02;;;;;;;25.22;36.26;101379.94;5254950;28;20550;-74
2023/05/15 08:58:00;;;;;;;33.67;30.42;;;;;;;25.10;37.12;101379.50;5237057;28;20029;-74
2023/05/15 09:00:32;;;;;;;32.80;29.95;;;;;;;24.52;39.45;101381.38;5236196;28;20029;-73
2023/05/15 09:03:03;;;;;;;35.88;31.98;;;;;;;25.38;36.85;101378.97;5261672;28;20033;-73
2023/05/15 09:05:34;;;;;;;34.45;31.15;;;;;;;25.79;37.17;101382.41;5275575;28;20032;-74
2023/05/15 09:08:07;;;;;;;31.02;28.13;;;;;;;26.47;35.53;101384.28;5257349;28;20115;-74
2023/05/15 09:10:38;;;;;;;33.70;30.30;;;;;;;26.72;35.25;101381.31;5275390;28;20047;-74
2023/05/15 09:13:11;;;;;;;31.88;28.67;;;;;;;26.34;34.76;101379.53;5275577;28;20392;-73
2023/05/15 09:15:44;;;;;;;32.97;29.65;;;;;;;26.28;35.23;101383.78;5253520;28;20051;-74
2023/05/15 09:18:16;;;;;;;31.23;28.02;;;;;;;26.02;35.29;101378.84;5238140;28;20093;-74
2023/05/15 09:20:47;;;;;;;29.50;26.60;;;;;;;25.71;36.30;101380.63;5254317;28;20033;-74
2023/05/15 09:23:26;;;;;;;28.80;26.15;;;;;;;26.22;36.69;101381.81;5235795;28;20025;-73
2023/05/15 09:25:57;;;;;;;31.42;28.42;;;;;;;25.65;36.67;101375.97;5250376;28;20044;-72
2023/05/15 09:28:31;;;;;;;30.67;27.70;;;;;;;25.52;36.91;101379.25;5231834;28;20033;-73
2023/05/15 09:31:04;;;;;;;28.90;26.08;;;;;;;25.34;36.95;101373.13;5249728;28;20083;-73
2023/05/15 09:33:37;;;;;;;32.53;28.95;;;;;;;24.89;37.95;101379.06;5232362;28;20029;-72
2023/05/15 09:36:09;;;;;;;32.83;29.40;;;;;;;24.80;37.97;101380.13;5249497;28;20036;-73
2023/05/15 09:38:42;;;;;;;31.55;28.45;;;;;;;23.92;39.58;101388.81;5232403;28;20021;-72
2023/05/15 09:41:13;;;;;;;32.05;28.70;;;;;;;23.93;39.59;101364.56;5250695;28;20546;-72
2023/05/15 09:43:44;;;;;;;30.95;28.05;;;;;;;23.86;39.83;101378.81;5249606;28;20051;-73
2023/05/15 09:46:16;;;;;;;32.25;28.85;;;;;;;23.77;40.11;101375.28;5249930;28;20033;-72
2023/05/15 09:48:48;;;;;;;28.58;25.80;;;;;;;23.42;41.49;101378.91;5250045;28;20355;-75
2023/05/15 09:51:20;;;;;;;29.33;26.45;;;;;;;23.15;41.85;101378.19;5250764;28;20033;-74
2023/05/15 09:53:52;;;;;;;31.98;28.67;;;;;;;23.21;42.22;101380.19;5250454;28;20032;-74
2023/05/15 09:56:23;;;;;;;31.92;28.67;;;;;;;22.80;42.88;101382.72;5252820;28;20041;-74
2023/05/15 09:58:57;;;;;;;31.52;28.25;;;;;;;22.92;42.76;101383.25;5253142;28;20025;-74
2023/05/15 10:01:28;;;;;;;31.58;28.50;;;;;;;22.90;42.58;101380.75;5249548;28;20452;-75
2023/05/15 10:04:02;;;;;;;31.90;28.77;;;;;;;22.21;45.42;101387.72;5251365;28;20024;-74
2023/05/15 10:06:38;;;;;;;30.77;27.95;;;;;;;22.70;43.62;101386.38;5251918;28;20493;-74
2023/05/15 10:09:10;;;;;;;30.67;27.40;;;;;;;22.23;45.18;101382.22;5251627;28;20112;-74
2023/05/15 10:11:45;;;;;;;30.70;27.73;;;;;;;22.50;44.11;101379.56;5250302;28;20037;-74
2023/05/15 10:14:18;;;;;;;30.90;27.07;;;;;;;22.42;43.97;101386.50;5233614;28;20366;-74
2023/05/15 10:16:50;;;;;;;30.90;27.57;;;;;;;22.23;44.61;101388.41;5229285;28;20043;-74
2023/05/15 10:19:22;;;;;;;30.70;27.50;;;;;;;22.26;44.91;101394.41;5232331;28;20477;-74
2023/05/15 10:21:57;;;;;;;27.73;25.10;;;;;;;22.40;45.20;101396.50;5233524;28;20028;-74
2023/05/15 10:24:29;;;;;;;26.40;23.70;;;;;;;22.33;45.18;101392.78;5232969;28;20029;-75
2023/05/15 10:27:02;;;;;;;26.53;23.97;;;;;;;22.09;46.10;101392.47;5250897;28;20051;-74
2023/05/15 10:29:35;;;;;;;26.03;23.57;;;;;;;21.99;47.09;101379.22;5251175;28;20091;-72
2023/05/15 10:32:07;;;;;;;26.53;23.83;;;;;;;21.96;48.60;101395.53;5247785;28;20405;-74
2023/05/15 10:34:38;;;;;;;26.27;23.53;;;;;;;22.08;46.67;101397.97;5250950;28;20480;-74
2023/05/15 10:37:10;;;;;;;24.23;21.57;;;;;;;22.26;46.43;101389.91;5251998;28;20294;-74
2023/05/15 10:39:44;;;;;;;24.80;22.23;;;;;;;21.94;47.48;101392.16;5249560;28;20043;-74
2023/05/15 10:42:16;;;;;;;25.30;22.60;;;;;;;21.90;49.19;101390.81;5257451;28;20129;-74
2023/05/15 10:44:48;;;;;;;23.50;21.00;;;;;;;21.79;49.23;101396.34;5255283;28;20424;-74
2023/05/15 10:47:19;;;;;;;22.30;20.10;;;;;;;21.96;49.39;101394.69;5252841;28;20029;-74
2023/05/15 10:49:51;;;;;;;23.07;20.63;;;;;;;22.00;47.46;101391.56;5255058;28;20031;-74
2023/05/15 10:52:23;;;;;;;25.57;23.03;;;;;;;21.81;48.88;101389.91;5255480;28;20079;-74
2023/05/15 10:54:55;;;;;;;25.93;23.33;;;;;;;21.90;47.66;101400.63;5253373;28;20020;-74
2023/05/15 10:57:30;;;;;;;24.57;22.17;;;;;;;22.24;47.30;101391.88;5255981;28;20029;-74
2023/05/15 11:00:04;;;;;;;25.60;23.10;;;;;;;22.06;47.55;101399.94;5255358;28;20500;-74
2023/05/15 11:02:38;;;;;;;26.08;23.48;;;;;;;22.03;47.39;101394.94;5254173;28;20033;-75
2023/05/15 11:05:11;;;;;;;26.85;24.13;;;;;;;21.51;48.39;101381.28;5254641;28;20386;-75
2023/05/15 11:07:42;;;;;;;25.77;23.37;;;;;;;21.76;48.27;101395.66;5255373;28;20032;-74
2023/05/15 11:10:28;;;;;;;27.67;24.97;;;;;;;21.85;49.55;101401.09;5255064;28;20029;-74
2023/05/15 11:13:01;;;;;;;27.33;24.77;;;;;;;21.76;49.12;101398.31;5255190;28;20432;-74
2023/05/15 11:15:43;;;;;;;27.80;25.00;;;;;;;21.31;51.10;101409.88;5236061;28;20037;-74
2023/05/15 11:18:14;;;;;;;27.63;25.17;;;;;;;21.05;51.07;101395.44;5255179;28;20035;-74
2023/05/15 11:20:50;;;;;;;30.57;27.70;;;;;;;21.33;50.33;101402.59;5254699;28;20033;-74
2023/05/15 11:23:22;;;;;;;30.10;27.00;;;;;;;21.05;51.37;101386.63;5237015;28;20087;-74
2023/05/15 11:25:56;;;;;;;29.63;26.67;;;;;;;21.43;50.99;101400.69;5254142;28;20542;-74
2023/05/15 11:28:27;;;;;;;;;;;;;;;22.39;48.06;101389.50;5256225;28;20426;-74
2023/05/15 11:30:59;;;;;;;30.20;27.30;;;;;;;21.45;50.57;101396.03;5253543;28;19916;-75
2023/05/15 11:33:30;;;;;;;32.27;29.17;;;;;;;21.28;50.91;101387.88;5250443;28;20028;-75